createdAt,value
2023-04-12T09:44:53.112Z,29.35
2023-04-12T09:49:58.490Z,32.29
2023-04-12T09:52:25.062Z,31.58
2023-04-12T09:54:51.574Z,30.58
2023-04-12T09:57:18.009Z,30.45
2023-04-12T09:59:44.477Z,30.43
2023-04-12T10:02:11.030Z,29.76
2023-04-12T10:04:37.699Z,29.64
2023-04-12T10:07:04.282Z,29.42
2023-04-12T10:09:30.798Z,29.98
2023-04-12T10:11:57.257Z,29.87
2023-04-12T10:14:23.833Z,30.06
2023-04-12T10:16:53.368Z,29.10
2023-04-12T10:19:19.841Z,29.06
2023-04-12T10:21:46.347Z,29.31
2023-04-12T10:24:12.809Z,29.12
2023-04-12T10:26:42.462Z,30.07
2023-04-12T10:29:09.003Z,29.64
2023-04-12T10:31:35.508Z,29.90
2023-04-12T10:34:02.043Z,29.64
2023-04-12T10:36:28.622Z,29.80
2023-04-12T10:38:55.138Z,30.18
2023-04-12T10:41:21.687Z,30.31
2023-04-12T10:43:48.177Z,30.69
2023-04-12T10:46:14.693Z,31.11
2023-04-12T10:48:41.175Z,32.04
2023-04-12T10:51:07.597Z,33.22
2023-04-12T10:53:34.104Z,34.30
2023-04-12T10:56:00.552Z,35.56
2023-04-12T10:58:27.096Z,36.99
2023-04-12T11:00:53.717Z,39.04
2023-04-12T11:03:20.696Z,41.14
2023-04-12T11:05:47.650Z,43.98
2023-04-12T11:08:14.286Z,46.48
2023-04-12T11:10:40.687Z,48.62
2023-04-12T11:13:07.271Z,50.44
2023-04-12T11:15:33.829Z,52.97
2023-04-12T11:18:00.380Z,54.21
2023-04-12T11:20:26.885Z,55.18
2023-04-12T11:22:53.357Z,56.29
2023-04-12T11:25:19.857Z,57.80
2023-04-12T11:27:46.338Z,59.29
2023-04-12T11:30:12.835Z,60.92
2023-04-12T11:32:39.486Z,61.37
2023-04-12T11:35:05.941Z,39.26
2023-04-12T11:37:32.481Z,38.46
2023-04-12T11:39:59.036Z,42.49
2023-04-12T11:42:25.503Z,46.68
2023-04-12T11:44:58.491Z,50.69
2023-04-12T11:47:28.393Z,54.64
2023-04-12T11:49:54.938Z,58.01
2023-04-12T11:52:21.448Z,60.04
2023-04-12T11:54:47.909Z,63.23
2023-04-12T11:57:14.379Z,66.26
2023-04-12T11:59:40.821Z,69.68
2023-04-12T12:02:21.544Z,74.04
2023-04-12T12:04:49.677Z,77.90
2023-04-12T12:07:16.536Z,81.01
2023-04-12T12:09:43.220Z,82.72
2023-04-12T12:12:09.647Z,83.71
2023-04-12T12:14:36.132Z,83.88
2023-04-12T12:17:02.600Z,84.37
2023-04-12T12:19:29.069Z,84.92
2023-04-12T12:21:55.740Z,62.66
2023-04-12T12:24:22.159Z,66.15
2023-04-12T12:26:48.666Z,69.83
2023-04-12T12:29:15.129Z,71.91
2023-04-12T12:31:43.227Z,74.57
2023-04-12T12:34:10.035Z,76.80
2023-04-12T12:36:36.833Z,75.18
2023-04-12T12:39:03.381Z,78.12
2023-04-12T12:41:29.820Z,79.38
2023-04-12T12:43:56.476Z,70.47
2023-04-12T12:46:31.478Z,71.71
2023-04-12T12:49:04.042Z,72.45
2023-04-12T12:51:30.562Z,72.66
2023-04-12T12:53:57.290Z,69.90
2023-04-12T12:56:24.080Z,72.24
2023-04-12T12:58:50.556Z,75.12
2023-04-12T13:01:17.069Z,78.42
2023-04-12T13:03:43.801Z,79.67
2023-04-12T13:06:10.380Z,78.97
2023-04-12T13:08:36.966Z,76.11
2023-04-12T13:11:03.554Z,75.91
2023-04-12T13:13:30.110Z,78.16
2023-04-12T13:15:56.680Z,79.66
2023-04-12T13:18:23.210Z,80.57
2023-04-12T13:20:49.723Z,81.53
2023-04-12T13:23:16.268Z,83.30
2023-04-12T13:25:42.834Z,84.34
2023-04-12T13:28:09.341Z,85.56
2023-04-12T13:30:36.048Z,85.85
2023-04-12T13:33:02.621Z,86.39
2023-04-12T13:35:29.109Z,86.88
2023-04-12T13:37:55.639Z,81.63
2023-04-12T13:40:22.125Z,84.99
2023-04-12T13:42:48.648Z,86.40
2023-04-12T13:45:15.209Z,86.50
2023-04-12T13:47:41.696Z,87.14
2023-04-12T13:50:08.173Z,87.15
2023-04-12T13:52:34.694Z,86.53
2023-04-12T13:55:01.182Z,82.96
2023-04-12T13:57:27.684Z,83.28
2023-04-12T13:59:54.167Z,82.37
2023-04-12T14:02:20.785Z,81.93
2023-04-12T14:04:47.417Z,81.66
2023-04-12T14:07:14.008Z,80.33
2023-04-12T14:09:43.478Z,80.19
2023-04-12T14:12:10.032Z,78.46
2023-04-12T14:14:36.561Z,77.49
2023-04-12T14:17:03.178Z,75.27
2023-04-12T14:19:29.806Z,75.67
2023-04-12T14:21:56.304Z,70.12
2023-04-12T14:24:22.938Z,71.36
2023-04-12T14:26:49.537Z,67.35
2023-04-12T14:29:16.049Z,53.20
2023-04-12T14:31:42.668Z,52.57
2023-04-12T14:34:09.272Z,47.71
2023-04-12T14:36:35.807Z,43.87
2023-04-12T14:39:02.425Z,42.10
2023-04-12T14:41:28.988Z,40.04
2023-04-12T14:43:55.776Z,39.49
2023-04-12T14:46:22.548Z,43.31
2023-04-12T14:48:49.120Z,39.37
2023-04-12T14:51:15.609Z,37.45
2023-04-12T14:53:42.073Z,33.45
2023-04-12T14:56:08.561Z,31.78
2023-04-12T14:58:35.086Z,31.36
2023-04-12T15:01:01.660Z,31.00
2023-04-12T15:03:28.317Z,30.39
2023-04-12T15:05:54.938Z,30.91
2023-04-12T15:08:21.517Z,30.68
2023-04-12T15:10:48.073Z,29.95
2023-04-12T15:13:14.651Z,30.54
2023-04-12T15:15:41.147Z,29.89
2023-04-12T15:18:07.780Z,31.03
2023-04-12T15:20:34.478Z,31.20
2023-04-12T15:23:00.958Z,30.25
2023-04-12T15:25:27.415Z,30.48
2023-04-12T15:27:53.893Z,30.59
2023-04-12T15:30:20.394Z,30.34
2023-04-12T15:32:46.907Z,30.97
2023-04-12T15:37:42.979Z,31.17
2023-04-12T15:40:09.508Z,31.59
2023-04-12T15:42:35.986Z,30.74
2023-04-12T15:45:02.487Z,30.56
2023-04-12T15:47:29.013Z,31.16
2023-04-12T15:49:55.507Z,30.29
2023-04-12T15:52:21.983Z,31.28
2023-04-12T15:54:48.454Z,31.53
2023-04-12T15:57:14.965Z,31.60
2023-04-12T15:59:41.503Z,31.30
2023-04-12T16:02:08.089Z,31.37
2023-04-12T16:04:34.815Z,30.85
2023-04-12T16:07:01.377Z,31.14
2023-04-12T16:09:27.958Z,31.30
2023-04-12T16:11:54.447Z,30.85
2023-04-12T16:14:21.024Z,31.65
2023-04-12T16:16:47.597Z,31.83
2023-04-12T16:19:14.298Z,31.87
2023-04-12T16:21:42.016Z,31.69
2023-04-12T16:24:09.671Z,31.36
2023-04-12T16:26:36.138Z,31.61
2023-04-12T16:29:02.729Z,30.84
2023-04-12T16:31:29.340Z,31.55
2023-04-12T16:33:55.888Z,31.57
2023-04-12T16:36:22.474Z,31.27
2023-04-12T16:38:48.930Z,31.27
2023-04-12T16:41:15.388Z,30.76
2023-04-12T16:43:44.785Z,30.47
2023-04-12T16:46:11.870Z,30.52
2023-04-12T16:48:38.336Z,30.01
2023-04-12T16:51:04.828Z,29.69
2023-04-12T16:53:31.318Z,29.73
2023-04-12T16:55:58.102Z,29.17
2023-04-12T16:58:24.572Z,29.39
2023-04-12T17:00:51.075Z,29.02
2023-04-12T17:03:18.596Z,29.66
2023-04-12T17:05:47.072Z,28.97
2023-04-12T17:08:13.557Z,29.17
2023-04-12T17:10:40.132Z,29.42
2023-04-12T17:13:06.671Z,29.50
2023-04-12T17:15:33.225Z,29.51
2023-04-12T17:17:59.828Z,30.37
2023-04-12T17:20:26.457Z,29.40
2023-04-12T17:22:53.308Z,29.82
2023-04-12T17:28:06.363Z,29.45
2023-04-12T17:30:32.978Z,29.14
2023-04-12T17:32:59.441Z,29.11
2023-04-12T17:35:26.051Z,28.99
2023-04-12T17:37:52.563Z,29.40
2023-04-12T17:40:19.031Z,29.08
2023-04-12T17:42:45.533Z,29.04
2023-04-12T17:45:12.075Z,28.83
2023-04-12T17:47:38.661Z,28.85
2023-04-12T17:50:05.284Z,28.87
2023-04-12T17:52:31.819Z,28.72
2023-04-12T17:54:58.398Z,28.69
2023-04-12T17:57:24.912Z,28.48
2023-04-12T17:59:51.483Z,29.28
2023-04-12T18:02:18.120Z,29.38
2023-04-12T18:04:44.764Z,29.47
2023-04-12T18:07:11.415Z,28.92
2023-04-12T18:09:37.988Z,29.14
2023-04-12T18:12:04.440Z,28.47
2023-04-12T18:14:30.981Z,28.31
2023-04-12T18:16:57.530Z,28.51
2023-04-12T18:19:24.072Z,28.36
2023-04-12T18:21:50.530Z,28.77
2023-04-12T18:24:17.025Z,28.74
2023-04-12T18:26:43.545Z,28.61
2023-04-12T18:29:10.060Z,29.71
2023-04-12T18:31:36.642Z,29.69
2023-04-12T18:34:03.159Z,29.48
2023-04-12T18:36:29.606Z,29.04
2023-04-12T18:38:56.092Z,29.47
2023-04-12T18:41:22.560Z,29.80
2023-04-12T18:43:49.068Z,29.78
2023-04-12T18:46:15.642Z,30.19
2023-04-12T18:48:42.206Z,29.64
2023-04-12T18:51:08.787Z,29.33
2023-04-12T18:53:35.251Z,30.08
2023-04-12T18:56:01.721Z,29.67
2023-04-12T18:58:36.993Z,29.55
2023-04-12T19:01:12.585Z,29.59
2023-04-12T19:03:39.237Z,29.68
2023-04-12T19:06:05.805Z,29.89
2023-04-12T19:08:32.288Z,29.58
2023-04-12T19:10:58.782Z,29.81
2023-04-12T19:13:25.223Z,29.89
2023-04-12T19:15:51.793Z,30.20
2023-04-12T19:18:18.319Z,29.73
2023-04-12T19:20:44.813Z,29.74
2023-04-12T19:23:11.449Z,30.19
2023-04-12T19:25:38.016Z,30.00
2023-04-12T19:28:04.606Z,30.10
2023-04-12T19:30:31.186Z,29.44
2023-04-12T19:32:57.785Z,29.66
2023-04-12T19:35:24.356Z,29.75
2023-04-12T19:37:50.888Z,30.45
2023-04-12T19:40:17.387Z,29.84
2023-04-12T19:42:43.891Z,29.69
2023-04-12T19:45:10.405Z,30.04
2023-04-12T19:47:36.863Z,29.66
2023-04-12T19:50:03.468Z,29.85
2023-04-12T19:52:30.044Z,29.67
2023-04-12T19:54:56.557Z,29.84
2023-04-12T19:57:23.119Z,29.65
2023-04-12T19:59:49.598Z,29.35
2023-04-12T20:02:16.185Z,28.84
2023-04-12T20:04:42.690Z,28.04
2023-04-12T20:07:09.231Z,28.15
2023-04-12T20:09:35.794Z,27.49
2023-04-12T20:12:02.353Z,28.38
2023-04-12T20:14:28.895Z,27.30
2023-04-12T20:16:55.472Z,27.06
2023-04-12T20:19:22.012Z,27.27
2023-04-12T20:21:48.411Z,26.86
2023-04-12T20:24:14.955Z,27.38
2023-04-12T20:26:41.518Z,27.16
2023-04-12T20:29:08.089Z,27.41
2023-04-12T20:31:34.784Z,27.60
2023-04-12T20:34:01.387Z,26.83
2023-04-12T20:36:27.934Z,26.76
2023-04-12T20:38:54.589Z,27.41
2023-04-12T20:41:21.194Z,27.49
2023-04-12T20:43:47.787Z,27.29
2023-04-12T20:46:14.469Z,26.88
2023-04-12T20:48:41.127Z,27.28
2023-04-12T20:51:07.817Z,27.58
2023-04-12T20:53:34.402Z,26.95
2023-04-12T20:56:01.041Z,27.63
2023-04-12T20:58:27.503Z,26.75
2023-04-12T21:00:53.991Z,26.27
2023-04-12T21:03:20.666Z,26.17
2023-04-12T21:05:47.118Z,26.01
2023-04-12T21:08:19.331Z,26.23
2023-04-12T21:10:46.865Z,25.77
2023-04-12T21:15:58.565Z,25.34
2023-04-12T21:18:25.073Z,25.73
2023-04-12T21:21:00.398Z,25.61
2023-04-12T21:23:26.854Z,25.49
2023-04-12T21:25:53.435Z,25.50
2023-04-12T21:28:19.934Z,25.13
2023-04-12T21:30:46.489Z,25.14
2023-04-12T21:33:13.063Z,25.20
2023-04-12T21:35:39.666Z,25.44
2023-04-12T21:38:06.195Z,25.04
2023-04-12T21:40:32.686Z,25.48
2023-04-12T21:42:59.258Z,24.89
2023-04-12T21:45:25.790Z,24.76
2023-04-12T21:47:52.378Z,24.60
2023-04-12T21:50:18.951Z,23.81
2023-04-12T21:52:45.607Z,23.86
2023-04-12T21:55:12.098Z,24.06
2023-04-12T21:57:38.580Z,24.49
2023-04-12T22:02:47.118Z,24.00
2023-04-12T22:05:23.052Z,23.94
2023-04-12T22:07:59.259Z,24.08
2023-04-12T22:10:25.856Z,23.95
2023-04-12T22:18:15.580Z,23.26
2023-04-12T22:20:42.117Z,22.97
2023-04-12T22:23:19.016Z,23.03
2023-04-12T22:25:45.555Z,23.07
2023-04-12T22:28:12.030Z,22.88
2023-04-12T22:30:38.647Z,22.60
2023-04-12T22:33:05.237Z,22.61
2023-04-12T22:35:31.704Z,22.69
2023-04-12T22:37:58.202Z,22.59
2023-04-12T22:40:24.738Z,22.43
2023-04-12T22:42:51.353Z,22.50
2023-04-12T22:45:17.931Z,22.67
2023-04-12T22:47:44.480Z,22.52
2023-04-12T22:50:11.089Z,22.53
2023-04-12T22:52:37.575Z,22.50
2023-04-12T22:55:04.136Z,22.28
2023-04-12T22:57:30.656Z,22.02
2023-04-12T22:59:57.232Z,22.04
2023-04-12T23:02:26.991Z,21.68
2023-04-12T23:04:53.625Z,21.44
2023-04-12T23:07:20.151Z,21.50
2023-04-12T23:09:46.689Z,21.08
2023-04-12T23:12:13.131Z,21.06
2023-04-12T23:14:39.681Z,21.46
2023-04-12T23:17:06.194Z,20.88
2023-04-12T23:19:32.715Z,20.62
2023-04-12T23:21:59.275Z,20.56
2023-04-12T23:24:25.817Z,20.47
2023-04-12T23:26:52.355Z,20.47
2023-04-12T23:29:18.855Z,20.81
2023-04-12T23:31:45.568Z,20.48
2023-04-12T23:34:12.103Z,20.60
2023-04-12T23:36:38.585Z,20.53
2023-04-12T23:39:05.049Z,20.34
2023-04-12T23:41:31.622Z,20.81
2023-04-12T23:43:58.383Z,20.50
2023-04-12T23:46:25.135Z,20.45
2023-04-12T23:48:51.672Z,20.99
2023-04-12T23:51:18.153Z,21.21
2023-04-12T23:53:44.623Z,21.35
2023-04-12T23:56:11.050Z,21.34
2023-04-12T23:58:37.541Z,21.79
